»·PEaware :: NKS323 KSAN-KSFO

NKS323 :: KSAN-KSFO

FLIGHT INFORMATION

Flight Status: Arrived
Operator:
Spirit Airlines
More flights by this operator :: More flights under this callsign
Pilot: Lucas B. (17570)
Aircraft: AIRBUS A321
(A321)
More flights by this aircraft type
Origin: KSAN San Diego Intl-Lindbergh
United States
Destination: KSFO San Francisco Intl
United States
More flights between these airports :: More routes between these airports
Route: PADRZ2 IKAYE RIZIN SPLNT STOKD SERFR SERFR4
File this flight plan on PilotEdge
Remarks: RMK / SIMBRIEF
Altitude:
(Current/Filed)
34,000ft
Speed:
(Current/Filed)
450kts
Departed: 18-Jul-20 04:50 PM
Arrived: 18-Jul-20 05:52 PM
Distance/Time
Traveled:
388nm/1:01
Distance/Time
To Go:
Arrived

Flight Plot

Page will automatically refresh every two minutes.


Map Options




Map Legend


Flown Route
Filed Route
Departure Airport
Arrival Airport
Navaid (VOR, NDB)
Fix

Horizontal Profiles

Position Reports

Time Latitude Longitude Heading Altitude Ground
Speed
18-Jul-20 16:22 32.732786 -117.197068 134 26ft 0kts
18-Jul-20 16:23 32.732786 -117.197068 134 26ft 0kts
18-Jul-20 16:24 32.732786 -117.197068 134 26ft 0kts
18-Jul-20 16:25 32.732786 -117.197068 134 26ft 0kts
18-Jul-20 16:26 32.732786 -117.197068 134 26ft 0kts
18-Jul-20 16:27 32.732786 -117.197068 134 26ft 0kts
18-Jul-20 16:28 32.732786 -117.197068 134 26ft 0kts
18-Jul-20 16:29 32.732786 -117.197068 134 26ft 0kts
18-Jul-20 16:30 32.732786 -117.197068 134 26ft 0kts
18-Jul-20 16:31 32.732786 -117.197068 134 26ft 0kts
18-Jul-20 16:33 32.732786 -117.197068 134 26ft 0kts
18-Jul-20 16:34 32.732786 -117.197068 134 26ft 0kts
18-Jul-20 16:35 32.732786 -117.197068 134 26ft 0kts
18-Jul-20 16:36 32.732787 -117.197068 134 26ft 0kts
18-Jul-20 16:37 32.732933 -117.197433 78 26ft 0kts
18-Jul-20 16:38 32.732911 -117.197521 74 26ft 0kts
18-Jul-20 16:39 32.732911 -117.197521 74 26ft 0kts
18-Jul-20 16:40 32.732911 -117.197521 74 26ft 0kts
18-Jul-20 16:41 32.732911 -117.197521 74 26ft 0kts
18-Jul-20 16:42 32.732911 -117.197521 74 26ft 0kts
18-Jul-20 16:43 32.732963 -117.197433 39 26ft 2kts
18-Jul-20 16:44 32.733802 -117.194908 106 26ft 16kts
18-Jul-20 16:45 32.732364 -117.188987 106 26ft 23kts
18-Jul-20 16:46 32.730628 -117.181807 105 26ft 21kts
18-Jul-20 16:47 32.729525 -117.176889 78 26ft 0kts
18-Jul-20 16:47 32.729525 -117.176889 78 26ft 0kts
18-Jul-20 16:49 32.730280 -117.176172 286 26ft 7kts
18-Jul-20 16:50 32.740324 -117.211615 304 1037ft 166kts
18-Jul-20 16:50 32.762622 -117.251909 301 2631ft 197kts
18-Jul-20 16:51 32.797870 -117.314755 304 4413ft 260kts
18-Jul-20 16:53 32.851739 -117.398528 306 7815ft 284kts
18-Jul-20 16:53 32.892483 -117.461819 306 10112ft 297kts
18-Jul-20 16:54 32.947321 -117.547113 307 11601ft 354kts
18-Jul-20 16:56 33.023528 -117.666010 306 13177ft 418kts
18-Jul-20 16:56 33.088679 -117.754538 317 15183ft 434kts
18-Jul-20 16:57 33.182274 -117.849418 318 17491ft 449kts
18-Jul-20 16:58 33.273196 -117.955191 314 19636ft 461kts
18-Jul-20 16:59 33.365013 -118.065118 314 21503ft 474kts
18-Jul-20 17:00 33.459479 -118.178398 314 23114ft 486kts
18-Jul-20 17:01 33.552134 -118.289828 314 25011ft 485kts
18-Jul-20 17:02 33.648672 -118.406347 314 26927ft 480kts
18-Jul-20 17:03 33.742643 -118.520161 314 28556ft 477kts
18-Jul-20 17:04 33.835716 -118.633264 313 30019ft 475kts
18-Jul-20 17:05 33.927972 -118.746131 313 31335ft 472kts
18-Jul-20 17:06 34.019780 -118.858476 313 32504ft 470kts
18-Jul-20 17:07 34.111357 -118.971372 311 33477ft 471kts
18-Jul-20 17:08 34.189468 -119.098077 300 34014ft 471kts
18-Jul-20 17:09 34.258431 -119.232769 300 34018ft 470kts
18-Jul-20 17:10 34.327448 -119.367544 300 34018ft 471kts
18-Jul-20 17:11 34.397416 -119.501738 303 34007ft 472kts
18-Jul-20 17:12 34.483948 -119.621509 313 34003ft 474kts
18-Jul-20 17:13 34.576558 -119.735450 312 34003ft 473kts
18-Jul-20 17:14 34.668633 -119.849361 312 34003ft 474kts
18-Jul-20 17:15 34.761284 -119.964286 312 34002ft 476kts
18-Jul-20 17:16 34.854177 -120.079899 312 34004ft 477kts
18-Jul-20 17:17 34.946293 -120.194851 313 34016ft 474kts
18-Jul-20 17:18 35.037933 -120.309741 313 34027ft 471kts
18-Jul-20 17:19 35.131996 -120.421884 316 34026ft 472kts
18-Jul-20 17:20 35.228776 -120.529662 316 34010ft 472kts
18-Jul-20 17:21 35.325661 -120.638678 316 34003ft 472kts
18-Jul-20 17:22 35.421898 -120.747845 316 34000ft 473kts
18-Jul-20 17:23 35.521795 -120.853401 321 33992ft 475kts
18-Jul-20 17:24 35.627192 -120.950913 322 33989ft 475kts
18-Jul-20 17:25 35.732827 -121.049267 322 33978ft 479kts
18-Jul-20 17:26 35.839048 -121.148588 322 33317ft 478kts
18-Jul-20 17:27 35.944362 -121.247371 323 32318ft 475kts
18-Jul-20 17:28 36.049599 -121.346408 323 30273ft 480kts
18-Jul-20 17:29 36.162778 -121.437652 328 26766ft 492kts
18-Jul-20 17:30 36.279084 -121.528161 327 22806ft 485kts
18-Jul-20 17:31 36.393716 -121.618241 327 21623ft 481kts
18-Jul-20 17:32 36.498549 -121.701166 326 20584ft 405kts
18-Jul-20 17:33 36.591781 -121.774909 326 18825ft 390kts
18-Jul-20 17:34 36.681830 -121.846328 326 17167ft 376kts
18-Jul-20 17:35 36.773212 -121.903310 346 15530ft 366kts
18-Jul-20 17:36 36.871121 -121.930064 347 13926ft 355kts
18-Jul-20 17:37 36.966814 -121.947957 13 12273ft 346kts
18-Jul-20 17:38 37.057705 -121.961023 313 10575ft 332kts
18-Jul-20 17:39 37.125192 -122.022068 343 10101ft 293kts
18-Jul-20 17:40 37.201923 -122.050320 340 9063ft 282kts
18-Jul-20 17:41 37.275751 -122.079239 340 8059ft 267kts
18-Jul-20 17:42 37.346978 -122.107304 340 6531ft 270kts
18-Jul-20 17:43 37.417378 -122.132918 342 4832ft 253kts
18-Jul-20 17:44 37.480305 -122.154068 342 3543ft 209kts
18-Jul-20 17:45 37.526579 -122.178042 301 2883ft 145kts
18-Jul-20 17:46 37.548121 -122.217584 312 2404ft 136kts
18-Jul-20 17:47 37.569050 -122.257149 300 1751ft 135kts
18-Jul-20 17:48 37.586763 -122.298586 299 1075ft 132kts
18-Jul-20 17:49 37.603780 -122.339330 299 397ft 129kts
18-Jul-20 17:50 37.619034 -122.375805 297 22ft 56kts
18-Jul-20 17:51 37.619478 -122.379574 228 22ft 5kts
18-Jul-20 17:52 37.618708 -122.381087 204 22ft 3kts
18-Jul-20 17:53 37.618551 -122.381169 202 22ft 0kts

Navigation Log

Ident Type
Flight plan parsing failed, navigation log unavailable